createdAt,value
2023-08-19T00:01:44.523Z,13.07
2023-08-19T00:04:18.458Z,12.27
2023-08-19T00:06:51.021Z,11.47
2023-08-19T00:09:23.723Z,12.63
2023-08-19T00:11:56.567Z,12.80
2023-08-19T00:14:29.173Z,12.33
2023-08-19T00:17:02.021Z,12.57
2023-08-19T00:19:36.118Z,11.77
2023-08-19T00:22:08.745Z,11.60
2023-08-19T00:24:41.280Z,11.90
2023-08-19T00:27:16.380Z,11.87
2023-08-19T00:29:55.869Z,13.17
2023-08-19T00:32:30.624Z,12.57
2023-08-19T00:35:07.918Z,11.53
2023-08-19T00:37:40.482Z,11.13
2023-08-19T00:40:15.814Z,12.30
2023-08-19T00:42:48.462Z,12.37
2023-08-19T00:45:21.215Z,12.53
2023-08-19T00:47:56.513Z,11.80
2023-08-19T00:50:30.588Z,12.90
2023-08-19T00:53:04.704Z,12.00
2023-08-19T00:55:37.584Z,11.67
2023-08-19T00:58:11.665Z,13.60
2023-08-19T01:00:44.512Z,11.60
2023-08-19T01:03:17.245Z,12.07
2023-08-19T01:06:00.471Z,12.60
2023-08-19T01:08:35.857Z,12.50
2023-08-19T01:11:12.523Z,12.60
2023-08-19T01:13:51.174Z,11.53
2023-08-19T01:16:25.441Z,11.97
2023-08-19T01:18:58.351Z,13.10
2023-08-19T01:21:32.546Z,11.37
2023-08-19T01:24:06.991Z,12.03
2023-08-19T01:26:40.841Z,12.43
2023-08-19T01:29:14.292Z,12.10
2023-08-19T01:31:47.363Z,12.47
2023-08-19T01:34:20.182Z,14.10
2023-08-19T01:36:55.703Z,12.10
2023-08-19T01:39:31.621Z,12.33
2023-08-19T01:42:06.390Z,13.00
2023-08-19T01:44:39.958Z,12.47
2023-08-19T01:47:18.473Z,14.67
2023-08-19T01:49:51.458Z,13.10
2023-08-19T01:52:24.020Z,12.77
2023-08-19T01:54:56.684Z,12.57
2023-08-19T01:57:30.889Z,12.90
2023-08-19T02:00:05.123Z,12.83
2023-08-19T02:02:37.848Z,11.70
2023-08-19T02:05:13.772Z,12.60
2023-08-19T02:07:46.592Z,11.40
2023-08-19T02:10:19.247Z,13.60
2023-08-19T02:12:53.202Z,13.67
2023-08-19T02:15:25.948Z,12.40
2023-08-19T02:17:59.452Z,12.53
2023-08-19T02:20:35.023Z,13.67
2023-08-19T02:23:07.707Z,12.80
2023-08-19T02:25:42.866Z,13.50
2023-08-19T02:28:16.734Z,13.10
2023-08-19T02:30:49.312Z,13.83
2023-08-19T02:33:24.606Z,13.87
2023-08-19T02:35:57.378Z,12.20
2023-08-19T02:38:30.007Z,13.30
2023-08-19T02:41:02.887Z,13.50
2023-08-19T02:43:37.203Z,13.10
2023-08-19T02:46:09.846Z,13.50
2023-08-19T02:48:42.549Z,12.97
2023-08-19T02:51:15.125Z,12.67
2023-08-19T02:53:50.766Z,14.00
2023-08-19T02:56:23.406Z,13.57
2023-08-19T02:58:57.314Z,13.27
2023-08-19T03:01:29.907Z,13.20
2023-08-19T03:04:02.506Z,13.53
2023-08-19T03:06:37.500Z,13.83
2023-08-19T03:09:10.176Z,13.13
2023-08-19T03:11:42.984Z,13.10
2023-08-19T03:14:16.972Z,13.30
2023-08-19T03:16:51.081Z,14.23
2023-08-19T03:19:23.828Z,14.30
2023-08-19T03:21:56.416Z,14.07
2023-08-19T03:24:29.233Z,12.97
2023-08-19T03:27:02.076Z,13.33
2023-08-19T03:29:36.119Z,14.63
2023-08-19T03:32:08.660Z,13.90
2023-08-19T03:34:41.307Z,13.90
2023-08-19T03:37:13.925Z,14.97
2023-08-19T03:39:49.324Z,13.40
2023-08-19T03:42:21.908Z,13.33
2023-08-19T03:44:58.406Z,14.83
2023-08-19T03:47:31.416Z,16.90
2023-08-19T03:50:04.149Z,13.40
2023-08-19T03:52:38.946Z,15.73
2023-08-19T03:55:11.592Z,15.10
2023-08-19T03:57:44.609Z,14.47
2023-08-19T04:00:18.627Z,14.87
2023-08-19T04:02:53.826Z,14.23
2023-08-19T04:05:26.543Z,14.27
2023-08-19T04:07:59.165Z,14.97
2023-08-19T04:10:31.690Z,14.63
2023-08-19T04:13:05.098Z,14.03
2023-08-19T04:15:39.183Z,14.70
2023-08-19T04:18:12.348Z,14.80
2023-08-19T04:20:44.985Z,14.50
2023-08-19T04:23:17.562Z,14.87
2023-08-19T04:25:52.546Z,15.87
2023-08-19T04:28:26.248Z,15.70
2023-08-19T04:31:04.274Z,14.57
2023-08-19T04:33:40.064Z,15.23
2023-08-19T04:36:13.388Z,15.17
2023-08-19T04:38:46.072Z,14.77
2023-08-19T04:41:18.703Z,15.67
2023-08-19T04:43:54.041Z,16.87
2023-08-19T04:46:28.124Z,14.63
2023-08-19T04:49:01.726Z,15.73
2023-08-19T04:51:34.433Z,14.50
2023-08-19T04:54:07.441Z,14.07
2023-08-19T04:56:43.159Z,15.97
2023-08-19T04:59:16.037Z,15.40
2023-08-19T05:01:52.794Z,16.50
2023-08-19T05:04:30.038Z,16.17
2023-08-19T05:07:02.763Z,16.63
2023-08-19T05:09:35.462Z,15.97
2023-08-19T05:12:10.781Z,17.37
2023-08-19T05:14:43.499Z,15.77
2023-08-19T05:17:17.483Z,16.20
2023-08-19T05:20:09.426Z,17.43
2023-08-19T05:22:42.004Z,17.40
2023-08-19T05:25:14.576Z,17.57
2023-08-19T05:27:47.178Z,17.70
2023-08-19T05:30:22.763Z,18.03
2023-08-19T05:32:56.626Z,17.73
2023-08-19T05:35:36.436Z,18.73
2023-08-19T05:38:11.160Z,17.73
2023-08-19T05:40:43.786Z,16.27
2023-08-19T05:43:16.279Z,16.97
2023-08-19T05:45:48.862Z,18.00
2023-08-19T05:48:22.928Z,17.53
2023-08-19T05:50:55.541Z,18.10
2023-08-19T05:53:30.787Z,17.67
2023-08-19T05:56:03.442Z,17.50
2023-08-19T05:58:36.374Z,18.00
2023-08-19T06:01:12.040Z,18.33
2023-08-19T06:03:48.683Z,18.13
2023-08-19T06:06:21.308Z,18.57
2023-08-19T06:08:53.992Z,18.77
2023-08-19T06:11:26.676Z,19.30
2023-08-19T06:14:00.075Z,19.17
2023-08-19T06:16:32.651Z,18.70
2023-08-19T06:19:06.705Z,19.03
2023-08-19T06:21:39.402Z,19.30
2023-08-19T06:24:11.976Z,18.80
2023-08-19T06:26:44.629Z,19.60
2023-08-19T06:29:17.167Z,19.37
2023-08-19T06:31:50.060Z,19.93
2023-08-19T06:34:24.377Z,19.80
2023-08-19T06:36:59.060Z,18.93
2023-08-19T06:39:32.828Z,18.83
2023-08-19T06:42:06.509Z,20.03
2023-08-19T06:44:40.458Z,20.13
2023-08-19T06:47:13.869Z,18.50
2023-08-19T06:49:50.197Z,19.87
2023-08-19T06:52:24.828Z,20.10
2023-08-19T06:54:57.618Z,19.07
2023-08-19T06:57:31.461Z,19.70
2023-08-19T07:00:10.024Z,19.67
2023-08-19T07:02:43.024Z,19.67
2023-08-19T07:05:17.854Z,20.73
2023-08-19T07:07:51.494Z,18.73
2023-08-19T07:10:26.977Z,19.10
2023-08-19T07:13:00.205Z,19.53
2023-08-19T07:15:33.143Z,18.63
2023-08-19T07:18:07.464Z,19.07
2023-08-19T07:20:41.539Z,19.23
2023-08-19T07:23:15.944Z,19.13
2023-08-19T07:25:51.594Z,22.83
2023-08-19T07:28:24.924Z,20.27
2023-08-19T07:30:58.059Z,18.73
2023-08-19T07:33:30.856Z,19.00
2023-08-19T07:36:05.301Z,18.67
2023-08-19T07:38:40.779Z,19.63
2023-08-19T07:41:13.457Z,20.10
2023-08-19T07:43:46.090Z,19.10
2023-08-19T07:46:19.054Z,17.70
2023-08-19T07:48:51.657Z,18.13
2023-08-19T07:51:25.767Z,22.30
2023-08-19T07:53:58.441Z,20.20
2023-08-19T07:56:31.228Z,17.77
2023-08-19T07:59:04.531Z,17.20
2023-08-19T08:01:37.110Z,18.80
2023-08-19T08:04:09.789Z,20.60
2023-08-19T08:06:43.779Z,17.90
2023-08-19T08:09:20.101Z,18.70
2023-08-19T08:11:53.592Z,18.23
2023-08-19T08:14:27.989Z,18.37
2023-08-19T08:17:00.629Z,17.47
2023-08-19T08:19:33.195Z,18.43
2023-08-19T08:22:07.477Z,17.40
2023-08-19T08:24:40.591Z,16.47
2023-08-19T08:27:14.199Z,15.63
2023-08-19T08:29:48.783Z,15.48
2023-08-19T08:32:21.323Z,14.90
2023-08-19T08:34:55.930Z,18.17
2023-08-19T08:37:30.093Z,14.27
2023-08-19T08:40:06.002Z,15.43
2023-08-19T08:42:38.658Z,16.33
2023-08-19T08:45:11.722Z,15.80
2023-08-19T08:47:44.347Z,15.07
2023-08-19T08:50:17.692Z,15.85
2023-08-19T08:52:52.636Z,17.75
2023-08-19T08:55:25.646Z,14.80
2023-08-19T08:57:58.501Z,13.27
2023-08-19T09:00:31.307Z,14.18
2023-08-19T09:03:04.278Z,14.10
2023-08-19T09:05:40.761Z,13.73
2023-08-19T09:08:16.742Z,14.20
2023-08-19T09:10:50.132Z,13.68
2023-08-19T09:13:26.152Z,15.23
2023-08-19T09:15:58.834Z,13.50
2023-08-19T09:18:31.683Z,13.13
2023-08-19T09:21:04.960Z,12.57
2023-08-19T09:23:42.874Z,13.85
2023-08-19T09:26:17.891Z,11.93
2023-08-19T09:28:57.322Z,12.45
2023-08-19T09:31:31.566Z,11.90
2023-08-19T09:34:04.369Z,10.98
2023-08-19T09:36:37.085Z,11.52
2023-08-19T09:39:10.991Z,11.48
2023-08-19T09:41:43.712Z,12.27
2023-08-19T09:44:16.598Z,12.30
2023-08-19T09:46:50.511Z,13.18
2023-08-19T09:49:23.679Z,12.13
2023-08-19T09:51:57.052Z,15.30
2023-08-19T09:54:31.182Z,13.35
2023-08-19T09:57:05.192Z,11.85
2023-08-19T09:59:38.644Z,11.43
2023-08-19T10:02:14.206Z,10.38
2023-08-19T10:04:47.142Z,10.57
2023-08-19T10:07:23.422Z,10.07
2023-08-19T10:10:02.520Z,9.85
2023-08-19T10:12:36.221Z,9.50
2023-08-19T10:15:19.136Z,11.20
2023-08-19T10:17:53.341Z,9.50
2023-08-19T10:20:27.819Z,8.45
2023-08-19T10:23:02.673Z,13.65
2023-08-19T10:25:36.960Z,8.85
2023-08-19T10:28:12.552Z,8.75
2023-08-19T10:30:45.140Z,8.27
2023-08-19T10:33:31.239Z,9.85
2023-08-19T10:36:04.913Z,10.63
2023-08-19T10:38:44.829Z,9.13
2023-08-19T10:41:20.138Z,9.60
2023-08-19T10:43:56.559Z,10.13
2023-08-19T10:46:30.038Z,9.05
2023-08-19T10:49:03.563Z,9.07
2023-08-19T10:51:54.559Z,9.82
2023-08-19T10:54:28.500Z,11.35
2023-08-19T10:57:16.101Z,11.13
2023-08-19T10:59:49.569Z,9.88
2023-08-19T11:02:22.196Z,10.00
2023-08-19T11:04:55.072Z,10.15
2023-08-19T11:07:28.156Z,13.13
2023-08-19T11:10:00.859Z,10.43
2023-08-19T11:12:35.117Z,9.65
2023-08-19T11:15:08.561Z,10.32
2023-08-19T11:17:41.290Z,10.00
2023-08-19T11:20:17.014Z,9.82
2023-08-19T11:22:51.908Z,14.13
2023-08-19T11:25:35.049Z,10.90
2023-08-19T11:28:09.449Z,10.10
2023-08-19T11:30:42.562Z,11.73
2023-08-19T11:33:21.497Z,10.27
2023-08-19T11:35:55.382Z,10.60
2023-08-19T11:38:28.268Z,10.70
2023-08-19T11:41:01.036Z,11.40
2023-08-19T11:43:43.967Z,10.57
2023-08-19T11:46:16.600Z,10.35
2023-08-19T11:48:50.482Z,10.45
2023-08-19T11:51:25.501Z,11.05
2023-08-19T11:54:02.618Z,12.20
2023-08-19T11:56:50.233Z,11.40
2023-08-19T11:59:36.855Z,9.85
2023-08-19T12:02:10.026Z,11.63
2023-08-19T12:04:42.523Z,12.13
2023-08-19T12:07:15.153Z,10.70
2023-08-19T12:09:51.075Z,9.32
2023-08-19T12:12:23.658Z,10.73
2023-08-19T12:14:59.201Z,11.10
2023-08-19T12:17:31.878Z,9.68
2023-08-19T12:20:04.931Z,8.95
2023-08-19T12:22:37.535Z,11.10
2023-08-19T12:25:11.333Z,9.68
2023-08-19T12:27:44.361Z,9.13
2023-08-19T12:30:20.861Z,10.63
2023-08-19T12:32:53.626Z,10.55
2023-08-19T12:35:26.214Z,9.57
2023-08-19T12:37:58.805Z,9.40
2023-08-19T12:40:31.381Z,8.90
2023-08-19T12:43:04.114Z,9.13
2023-08-19T12:45:38.482Z,10.60
2023-08-19T12:48:11.698Z,10.90
2023-08-19T12:50:44.276Z,10.73
2023-08-19T12:53:22.713Z,10.07
2023-08-19T12:55:55.329Z,9.13
2023-08-19T12:58:28.042Z,10.63
2023-08-19T13:01:04.178Z,10.10
2023-08-19T13:03:39.346Z,10.10
2023-08-19T13:06:11.896Z,8.93
2023-08-19T13:08:44.445Z,9.13
2023-08-19T13:11:17.123Z,10.93
2023-08-19T13:13:49.706Z,13.20
2023-08-19T13:16:26.418Z,10.68
2023-08-19T13:19:01.567Z,10.13
2023-08-19T13:21:34.193Z,11.90
2023-08-19T13:24:09.707Z,10.88
2023-08-19T13:26:42.957Z,9.27
2023-08-19T13:29:15.489Z,11.75
2023-08-19T13:31:50.583Z,9.77
2023-08-19T13:34:23.415Z,9.75
2023-08-19T13:36:57.164Z,10.35
2023-08-19T13:39:29.894Z,12.02
2023-08-19T13:42:02.620Z,8.98
2023-08-19T13:44:38.076Z,9.30
2023-08-19T13:47:11.953Z,9.63
2023-08-19T13:49:44.569Z,11.82
2023-08-19T13:52:32.234Z,9.68
2023-08-19T13:55:05.240Z,10.95
2023-08-19T13:57:40.937Z,9.90
2023-08-19T14:00:19.133Z,10.15
2023-08-19T14:02:53.380Z,9.10
2023-08-19T14:05:26.158Z,8.70
2023-08-19T14:07:58.723Z,9.75
2023-08-19T14:10:31.425Z,7.97
2023-08-19T14:13:04.047Z,8.32
2023-08-19T14:15:36.769Z,8.82
2023-08-19T14:18:10.755Z,8.70
2023-08-19T14:21:00.289Z,9.30
2023-08-19T14:23:32.916Z,8.13
2023-08-19T14:26:07.671Z,9.05
2023-08-19T14:28:40.442Z,8.93
2023-08-19T14:31:14.279Z,8.02
2023-08-19T14:33:48.356Z,7.47
2023-08-19T14:36:20.968Z,8.15
2023-08-19T14:38:55.971Z,9.65
2023-08-19T14:41:30.650Z,8.98
2023-08-19T14:44:03.323Z,8.43
2023-08-19T14:46:35.956Z,9.63
2023-08-19T14:49:09.976Z,9.52
2023-08-19T14:51:43.345Z,8.65
2023-08-19T14:54:18.784Z,8.23
2023-08-19T14:56:51.517Z,7.93
2023-08-19T14:59:24.062Z,9.77
2023-08-19T15:01:56.954Z,9.55
2023-08-19T15:04:31.065Z,9.40
2023-08-19T15:07:05.120Z,9.10
2023-08-19T15:09:39.849Z,8.82
2023-08-19T15:12:12.582Z,11.77
2023-08-19T15:14:45.278Z,9.43
2023-08-19T15:17:17.904Z,12.68
2023-08-19T15:19:52.005Z,10.38
2023-08-19T15:22:27.672Z,9.27
2023-08-19T15:25:04.972Z,9.68
2023-08-19T15:27:39.078Z,7.45
2023-08-19T15:30:12.898Z,9.30
2023-08-19T15:32:48.779Z,8.60
2023-08-19T15:35:23.167Z,9.85
2023-08-19T15:37:55.722Z,8.48
2023-08-19T15:40:28.458Z,9.60
2023-08-19T15:43:02.857Z,10.57
2023-08-19T15:45:35.547Z,9.85
2023-08-19T15:48:08.417Z,10.20
2023-08-19T15:50:42.318Z,8.85
2023-08-19T15:53:14.904Z,7.53
2023-08-19T15:55:47.434Z,8.02
2023-08-19T15:58:22.824Z,7.53
2023-08-19T16:00:55.368Z,7.57
2023-08-19T16:03:30.504Z,8.70
2023-08-19T16:06:04.914Z,11.48
2023-08-19T16:08:37.919Z,11.23
2023-08-19T16:11:12.803Z,7.35
2023-08-19T16:13:45.317Z,7.95
2023-08-19T16:16:17.886Z,9.80
2023-08-19T16:18:51.391Z,7.72
2023-08-19T16:21:26.596Z,11.10
2023-08-19T16:24:01.145Z,8.80
2023-08-19T16:26:36.400Z,11.30
2023-08-19T16:29:09.105Z,10.85
2023-08-19T16:31:44.645Z,8.65
2023-08-19T16:34:17.338Z,9.88
2023-08-19T16:36:51.442Z,10.13
2023-08-19T16:39:24.155Z,9.18
2023-08-19T16:41:56.841Z,9.93
2023-08-19T16:44:29.519Z,10.10
2023-08-19T16:47:03.463Z,9.70
2023-08-19T16:49:36.064Z,10.27
2023-08-19T16:52:10.050Z,11.70
2023-08-19T16:54:42.744Z,10.63
2023-08-19T16:57:15.313Z,9.85
2023-08-19T16:59:47.962Z,9.90
2023-08-19T17:02:23.641Z,10.50
2023-08-19T17:04:56.205Z,11.10
2023-08-19T17:07:32.897Z,10.10
2023-08-19T17:10:06.296Z,10.18
2023-08-19T17:12:38.844Z,9.90
2023-08-19T17:15:11.928Z,11.13
2023-08-19T17:17:46.947Z,11.63
2023-08-19T17:20:19.575Z,12.38
2023-08-19T17:22:57.901Z,12.07
2023-08-19T17:25:32.345Z,12.18
2023-08-19T17:28:07.538Z,11.77
2023-08-19T17:30:40.220Z,12.23
2023-08-19T17:33:13.052Z,10.57
2023-08-19T17:35:46.012Z,28.65
2023-08-19T17:38:20.045Z,17.00
2023-08-19T17:41:00.109Z,13.20
2023-08-19T17:43:33.002Z,14.25
2023-08-19T17:46:05.643Z,25.20
2023-08-19T17:48:38.288Z,17.75
2023-08-19T17:51:11.073Z,13.63
2023-08-19T17:53:49.890Z,16.98
2023-08-19T17:56:26.154Z,16.58
2023-08-19T17:58:58.949Z,11.68
2023-08-19T18:01:31.667Z,14.07
2023-08-19T18:04:04.410Z,13.45
2023-08-19T18:06:37.375Z,13.40
2023-08-19T18:09:11.354Z,14.63
2023-08-19T18:11:43.934Z,15.45
2023-08-19T18:14:19.549Z,14.90
2023-08-19T18:16:52.397Z,12.45
2023-08-19T18:19:32.277Z,14.55
2023-08-19T18:22:11.038Z,12.65
2023-08-19T18:24:44.996Z,13.48
2023-08-19T18:27:17.631Z,12.88
2023-08-19T18:29:50.251Z,13.02
2023-08-19T18:32:22.990Z,13.85
2023-08-19T18:34:56.588Z,12.23
2023-08-19T18:37:29.265Z,12.82
2023-08-19T18:40:05.526Z,13.45
2023-08-19T18:42:43.032Z,16.83
2023-08-19T18:45:16.289Z,14.43
2023-08-19T18:48:02.840Z,16.27
2023-08-19T18:50:36.524Z,17.42
2023-08-19T18:53:10.411Z,15.98
2023-08-19T18:55:44.886Z,15.75
2023-08-19T18:58:17.513Z,16.77
2023-08-19T19:00:50.520Z,16.40
2023-08-19T19:03:23.329Z,15.70
2023-08-19T19:05:56.060Z,15.80
2023-08-19T19:08:28.775Z,18.73
2023-08-19T19:11:02.919Z,16.90
2023-08-19T19:13:35.678Z,15.98
2023-08-19T19:16:08.558Z,17.13
2023-08-19T19:18:41.182Z,16.33
2023-08-19T19:21:13.967Z,17.25
2023-08-19T19:23:46.671Z,23.42
2023-08-19T19:26:20.661Z,17.42
2023-08-19T19:28:53.241Z,20.15
2023-08-19T19:31:31.380Z,18.63
2023-08-19T19:34:04.091Z,18.15
2023-08-19T19:36:39.821Z,18.13
2023-08-19T19:39:12.470Z,16.45
2023-08-19T19:41:48.657Z,19.13
2023-08-19T19:44:21.264Z,18.23
2023-08-19T19:46:54.844Z,18.65
2023-08-19T19:49:27.474Z,16.67
2023-08-19T19:52:00.026Z,18.92
2023-08-19T19:54:32.817Z,16.05
2023-08-19T19:57:09.749Z,16.38
2023-08-19T19:59:42.304Z,16.15
2023-08-19T20:02:15.107Z,19.45
2023-08-19T20:04:47.834Z,18.13
2023-08-19T20:07:20.333Z,17.92
2023-08-19T20:09:52.959Z,17.65
2023-08-19T20:12:27.135Z,18.08
2023-08-19T20:14:59.839Z,20.88
2023-08-19T20:17:32.695Z,17.92
2023-08-19T20:20:06.052Z,17.58
2023-08-19T20:22:38.703Z,16.52
2023-08-19T20:25:11.511Z,19.43
2023-08-19T20:27:45.448Z,17.95
2023-08-19T20:30:18.024Z,20.88
2023-08-19T20:32:50.749Z,19.92
2023-08-19T20:35:23.436Z,18.92
2023-08-19T20:37:56.700Z,19.93
2023-08-19T20:40:29.239Z,19.02
2023-08-19T20:43:05.344Z,19.52
2023-08-19T20:45:38.089Z,20.25
2023-08-19T20:48:12.930Z,19.73
2023-08-19T20:50:45.622Z,18.77
2023-08-19T20:53:18.320Z,19.53
2023-08-19T20:55:59.674Z,19.97
2023-08-19T20:58:33.642Z,20.05
2023-08-19T21:01:06.341Z,18.60
2023-08-19T21:03:44.205Z,20.33
2023-08-19T21:06:18.719Z,19.67
2023-08-19T21:08:51.342Z,20.23
2023-08-19T21:11:24.001Z,20.23
2023-08-19T21:13:57.932Z,20.77
2023-08-19T21:16:30.572Z,20.63
2023-08-19T21:19:03.130Z,20.17
2023-08-19T21:21:35.773Z,19.88
2023-08-19T21:24:08.899Z,19.50
2023-08-19T21:26:41.596Z,20.17
2023-08-19T21:29:15.460Z,20.03
2023-08-19T21:31:48.210Z,20.03
2023-08-19T21:34:20.799Z,19.45
2023-08-19T21:36:53.398Z,20.23
2023-08-19T21:39:28.685Z,17.90
2023-08-19T21:42:01.246Z,17.83
2023-08-19T21:44:35.378Z,16.83
2023-08-19T21:47:08.194Z,17.10
2023-08-19T21:49:43.134Z,16.27
2023-08-19T21:52:15.720Z,16.42
2023-08-19T21:54:48.304Z,15.50
2023-08-19T21:57:20.923Z,16.53
2023-08-19T21:59:55.277Z,14.82
2023-08-19T22:02:30.160Z,15.23
2023-08-19T22:05:02.935Z,16.03
2023-08-19T22:07:35.978Z,15.73
2023-08-19T22:10:09.161Z,14.73
2023-08-19T22:12:41.856Z,14.43
2023-08-19T22:15:15.936Z,15.70
2023-08-19T22:17:48.569Z,14.87
2023-08-19T22:20:21.174Z,15.65
2023-08-19T22:22:53.876Z,15.20
2023-08-19T22:25:26.583Z,15.13
2023-08-19T22:28:02.027Z,15.60
2023-08-19T22:30:39.647Z,15.60
2023-08-19T22:33:12.290Z,16.13
2023-08-19T22:35:45.222Z,16.80
2023-08-19T22:38:18.001Z,15.02
2023-08-19T22:40:50.687Z,16.73
2023-08-19T22:43:23.326Z,17.43
2023-08-19T22:45:57.328Z,16.30
2023-08-19T22:48:29.967Z,16.23
2023-08-19T22:51:02.781Z,16.47
2023-08-19T22:53:35.414Z,16.53
2023-08-19T22:56:08.068Z,16.80
2023-08-19T22:58:43.166Z,18.30
2023-08-19T23:01:17.075Z,17.60
2023-08-19T23:03:49.621Z,17.43
2023-08-19T23:06:24.962Z,16.20
2023-08-19T23:08:57.776Z,15.48
2023-08-19T23:11:33.262Z,17.97
2023-08-19T23:14:06.056Z,17.73
2023-08-19T23:16:42.304Z,17.50
2023-08-19T23:19:15.049Z,16.87
2023-08-19T23:21:47.726Z,16.33
2023-08-19T23:24:20.263Z,17.45
2023-08-19T23:26:52.908Z,17.48
2023-08-19T23:29:26.224Z,16.70
2023-08-19T23:32:00.266Z,18.33
2023-08-19T23:34:32.958Z,19.47
2023-08-19T23:37:05.945Z,17.67
2023-08-19T23:39:38.637Z,17.10
2023-08-19T23:42:11.146Z,18.87
2023-08-19T23:44:43.805Z,18.00
2023-08-19T23:47:18.316Z,18.52
2023-08-19T23:49:51.130Z,18.67
2023-08-19T23:52:26.989Z,16.70
2023-08-19T23:54:59.895Z,17.88
2023-08-19T23:57:35.277Z,16.97
